Aérodrome :
LOGIN :

S'inscrire | Disclaimer

   EN    FR    IT 

 










Légende :    VFR   VFR Marginal   IFR   IFR Intensif   IFR Très Intensif
Visi : 
Plafond : 
>= 8 km
>= 3000ft
5 à 8 km
1000 à 3000 ft
1500m à 5 km
500 à 1000 ft
800 à 1500m
200 à 500 ft
< 800m
< 200 ft
Symboles :   Orages  Brouillard  Fortes neiges  Fortes précipitations  Vent > 20 kt
SIGMETs :   Divers  Orages  Givrage  Turbulence  Onde Orograph.  Cendres Volcan.







- Altitude de l'aérodrome : 156 ft
- Code IATA : MLN


GEML - Melilla

DERNIER METAR :
  • 242300Z AUTO 26009KT 210V290 9999 NCD 19/15 Q1014

METARs EXPIRÉS :
  • 242230Z AUTO 25009G19KT 190V300 9999 NCD 19/16 Q1014
  • 242200Z AUTO 25008KT 180V300 9999 NCD 19/16 Q1014
  • 242130Z AUTO 26011KT 210V300 9999 NCD 19/16 Q1014
  • 242100Z AUTO 26014KT 230V290 9999 NCD 19/16 Q1013
  • 242030Z AUTO 26015KT 220V300 CAVOK 19/16 Q1013

TAF TAF GEML
Valide du 24 à 21h jusqu'au 25 à 21h UTC


242000Z 2421/2521 28012KT 9999 SCT012 SCT020 TX22/2514Z TN18/2505Z
TEMPO 2421/2504 28016G28KT
Pas de NOTAMs connus pour ce terrain.



MET'MAP, la Météo Aéronautique d'un coup d'oeil ! - Copyright ORBIFLY Décembre 2007 - Disclaimer

ORBIFLY MET'MAP TEAM :

Programmation & Développement : Alexandra Zaïnal
Conception & Développement : Baudouin d'Aumeries
Co-Programmation & Développement : Marc-Olivier Méhu
Soutien technique & logistique : Manuel Goepfert

Contact : metmap@orbifly.com




SOURCES & CREDITS :

   NOAA